sensor_id;sensor_type;location;lat;lon;timestamp;P1;durP1;ratioP1;P2;durP2;ratioP2
22525;SDS011;11429;50.842;4.386;2022-10-16T00:00:41;1.40;;;0.80;;
22525;SDS011;11429;50.842;4.386;2022-10-16T00:03:07;2.42;;;0.73;;
22525;SDS011;11429;50.842;4.386;2022-10-16T00:05:37;1.35;;;0.60;;
22525;SDS011;11429;50.842;4.386;2022-10-16T00:08:08;1.70;;;0.70;;
22525;SDS011;11429;50.842;4.386;2022-10-16T00:10:38;2.25;;;0.95;;
22525;SDS011;11429;50.842;4.386;2022-10-16T00:13:04;1.60;;;0.70;;
22525;SDS011;11429;50.842;4.386;2022-10-16T00:15:33;3.55;;;0.80;;
22525;SDS011;11429;50.842;4.386;2022-10-16T00:18:01;3.90;;;0.80;;
22525;SDS011;11429;50.842;4.386;2022-10-16T00:20:28;2.22;;;1.05;;
22525;SDS011;11429;50.842;4.386;2022-10-16T00:22:53;1.08;;;0.60;;
22525;SDS011;11429;50.842;4.386;2022-10-16T00:25:19;1.65;;;0.60;;
22525;SDS011;11429;50.842;4.386;2022-10-16T00:27:45;2.00;;;0.80;;
22525;SDS011;11429;50.842;4.386;2022-10-16T00:30:10;1.83;;;1.00;;
22525;SDS011;11429;50.842;4.386;2022-10-16T00:32:36;3.80;;;0.80;;
22525;SDS011;11429;50.842;4.386;2022-10-16T00:35:02;2.10;;;0.80;;
22525;SDS011;11429;50.842;4.386;2022-10-16T00:37:28;1.85;;;0.63;;
22525;SDS011;11429;50.842;4.386;2022-10-16T00:39:54;1.83;;;0.90;;
22525;SDS011;11429;50.842;4.386;2022-10-16T00:42:21;2.97;;;0.73;;
22525;SDS011;11429;50.842;4.386;2022-10-16T00:44:51;1.65;;;0.90;;
22525;SDS011;11429;50.842;4.386;2022-10-16T00:47:29;3.55;;;1.15;;
22525;SDS011;11429;50.842;4.386;2022-10-16T00:50:09;1.25;;;0.77;;
22525;SDS011;11429;50.842;4.386;2022-10-16T00:52:56;2.28;;;0.77;;
22525;SDS011;11429;50.842;4.386;2022-10-16T00:55:23;1.98;;;0.82;;
22525;SDS011;11429;50.842;4.386;2022-10-16T00:57:50;2.03;;;0.90;;
22525;SDS011;11429;50.842;4.386;2022-10-16T01:00:19;4.03;;;1.63;;
22525;SDS011;11429;50.842;4.386;2022-10-16T01:02:57;1.90;;;0.90;;
22525;SDS011;11429;50.842;4.386;2022-10-16T01:05:30;2.65;;;0.90;;
22525;SDS011;11429;50.842;4.386;2022-10-16T01:08:22;2.45;;;1.30;;
22525;SDS011;11429;50.842;4.386;2022-10-16T01:10:59;2.70;;;1.20;;
22525;SDS011;11429;50.842;4.386;2022-10-16T01:13:33;3.83;;;1.10;;
22525;SDS011;11429;50.842;4.386;2022-10-16T01:16:07;1.80;;;1.02;;
22525;SDS011;11429;50.842;4.386;2022-10-16T01:18:52;4.68;;;1.13;;
22525;SDS011;11429;50.842;4.386;2022-10-16T01:21:26;2.97;;;1.30;;
22525;SDS011;11429;50.842;4.386;2022-10-16T01:31:47;2.17;;;1.17;;
22525;SDS011;11429;50.842;4.386;2022-10-16T01:34:24;1.48;;;0.93;;
22525;SDS011;11429;50.842;4.386;2022-10-16T01:36:57;3.83;;;1.13;;
22525;SDS011;11429;50.842;4.386;2022-10-16T01:39:42;3.55;;;1.08;;
22525;SDS011;11429;50.842;4.386;2022-10-16T01:42:15;5.78;;;1.20;;
22525;SDS011;11429;50.842;4.386;2022-10-16T01:44:45;2.90;;;0.88;;
22525;SDS011;11429;50.842;4.386;2022-10-16T01:47:13;2.70;;;1.13;;
22525;SDS011;11429;50.842;4.386;2022-10-16T01:49:40;3.33;;;0.90;;
22525;SDS011;11429;50.842;4.386;2022-10-16T01:52:09;1.65;;;1.00;;
22525;SDS011;11429;50.842;4.386;2022-10-16T01:54:41;2.97;;;1.17;;
22525;SDS011;11429;50.842;4.386;2022-10-16T01:57:10;3.97;;;1.00;;
22525;SDS011;11429;50.842;4.386;2022-10-16T01:59:41;3.33;;;1.15;;
22525;SDS011;11429;50.842;4.386;2022-10-16T02:02:11;1.73;;;1.10;;
22525;SDS011;11429;50.842;4.386;2022-10-16T02:04:38;2.00;;;1.15;;
22525;SDS011;11429;50.842;4.386;2022-10-16T02:07:10;3.92;;;1.05;;
22525;SDS011;11429;50.842;4.386;2022-10-16T02:09:36;1.65;;;1.20;;
22525;SDS011;11429;50.842;4.386;2022-10-16T02:12:05;2.90;;;1.33;;
22525;SDS011;11429;50.842;4.386;2022-10-16T02:14:37;2.75;;;1.15;;
22525;SDS011;11429;50.842;4.386;2022-10-16T02:17:11;5.65;;;1.30;;
22525;SDS011;11429;50.842;4.386;2022-10-16T02:19:39;3.13;;;1.30;;
22525;SDS011;11429;50.842;4.386;2022-10-16T02:22:05;3.95;;;1.02;;
22525;SDS011;11429;50.842;4.386;2022-10-16T02:27:31;2.47;;;1.27;;
22525;SDS011;11429;50.842;4.386;2022-10-16T02:32:39;4.60;;;1.13;;
22525;SDS011;11429;50.842;4.386;2022-10-16T02:35:07;3.58;;;1.30;;
22525;SDS011;11429;50.842;4.386;2022-10-16T02:37:34;2.40;;;1.38;;
22525;SDS011;11429;50.842;4.386;2022-10-16T02:40:00;3.00;;;1.27;;
22525;SDS011;11429;50.842;4.386;2022-10-16T02:42:34;2.72;;;1.35;;
22525;SDS011;11429;50.842;4.386;2022-10-16T02:45:01;2.60;;;1.20;;
22525;SDS011;11429;50.842;4.386;2022-10-16T02:47:28;3.38;;;1.27;;
22525;SDS011;11429;50.842;4.386;2022-10-16T02:49:54;3.08;;;1.20;;
22525;SDS011;11429;50.842;4.386;2022-10-16T02:52:20;5.15;;;1.52;;
22525;SDS011;11429;50.842;4.386;2022-10-16T02:54:45;3.35;;;1.70;;
22525;SDS011;11429;50.842;4.386;2022-10-16T02:57:11;4.25;;;1.40;;
22525;SDS011;11429;50.842;4.386;2022-10-16T02:59:37;3.25;;;1.40;;
22525;SDS011;11429;50.842;4.386;2022-10-16T03:02:02;3.70;;;1.27;;
22525;SDS011;11429;50.842;4.386;2022-10-16T03:04:28;4.22;;;1.50;;
22525;SDS011;11429;50.842;4.386;2022-10-16T03:06:54;4.32;;;2.13;;
22525;SDS011;11429;50.842;4.386;2022-10-16T03:09:20;2.90;;;1.80;;
22525;SDS011;11429;50.842;4.386;2022-10-16T03:11:45;3.35;;;1.40;;
22525;SDS011;11429;50.842;4.386;2022-10-16T03:14:11;6.22;;;2.13;;
22525;SDS011;11429;50.842;4.386;2022-10-16T03:16:36;3.10;;;1.60;;
22525;SDS011;11429;50.842;4.386;2022-10-16T03:19:02;1.88;;;1.40;;
22525;SDS011;11429;50.842;4.386;2022-10-16T03:21:28;3.47;;;1.83;;
22525;SDS011;11429;50.842;4.386;2022-10-16T03:23:53;5.47;;;1.48;;
22525;SDS011;11429;50.842;4.386;2022-10-16T03:26:19;4.18;;;1.70;;
22525;SDS011;11429;50.842;4.386;2022-10-16T03:28:45;6.18;;;1.55;;
22525;SDS011;11429;50.842;4.386;2022-10-16T03:31:10;3.65;;;1.48;;
22525;SDS011;11429;50.842;4.386;2022-10-16T03:33:36;4.85;;;1.55;;
22525;SDS011;11429;50.842;4.386;2022-10-16T03:36:02;3.03;;;1.55;;
22525;SDS011;11429;50.842;4.386;2022-10-16T03:38:27;2.67;;;1.30;;
22525;SDS011;11429;50.842;4.386;2022-10-16T03:40:53;3.20;;;1.30;;
22525;SDS011;11429;50.842;4.386;2022-10-16T03:43:19;3.30;;;1.40;;
22525;SDS011;11429;50.842;4.386;2022-10-16T03:45:45;5.20;;;1.75;;
22525;SDS011;11429;50.842;4.386;2022-10-16T03:48:10;3.05;;;1.30;;
22525;SDS011;11429;50.842;4.386;2022-10-16T03:50:36;4.68;;;1.67;;
22525;SDS011;11429;50.842;4.386;2022-10-16T03:53:02;4.30;;;1.40;;
22525;SDS011;11429;50.842;4.386;2022-10-16T03:55:28;2.97;;;1.48;;
22525;SDS011;11429;50.842;4.386;2022-10-16T03:57:53;2.28;;;1.45;;
22525;SDS011;11429;50.842;4.386;2022-10-16T04:00:19;6.28;;;1.60;;
22525;SDS011;11429;50.842;4.386;2022-10-16T04:02:44;4.50;;;1.55;;
22525;SDS011;11429;50.842;4.386;2022-10-16T04:05:10;3.80;;;1.40;;
22525;SDS011;11429;50.842;4.386;2022-10-16T04:07:36;4.13;;;1.58;;
22525;SDS011;11429;50.842;4.386;2022-10-16T04:10:02;4.50;;;1.50;;
22525;SDS011;11429;50.842;4.386;2022-10-16T04:12:31;2.00;;;1.42;;
22525;SDS011;11429;50.842;4.386;2022-10-16T04:14:57;5.35;;;1.33;;
22525;SDS011;11429;50.842;4.386;2022-10-16T04:17:22;4.88;;;1.30;;
22525;SDS011;11429;50.842;4.386;2022-10-16T04:19:48;3.60;;;1.65;;
22525;SDS011;11429;50.842;4.386;2022-10-16T04:22:13;5.90;;;1.80;;
22525;SDS011;11429;50.842;4.386;2022-10-16T04:24:39;1.83;;;1.20;;
22525;SDS011;11429;50.842;4.386;2022-10-16T04:27:05;2.90;;;1.40;;
22525;SDS011;11429;50.842;4.386;2022-10-16T04:29:31;4.15;;;1.80;;
22525;SDS011;11429;50.842;4.386;2022-10-16T04:31:56;2.92;;;1.35;;
22525;SDS011;11429;50.842;4.386;2022-10-16T04:34:22;7.90;;;1.95;;
22525;SDS011;11429;50.842;4.386;2022-10-16T04:36:48;3.25;;;1.38;;
22525;SDS011;11429;50.842;4.386;2022-10-16T04:39:16;3.78;;;1.45;;
22525;SDS011;11429;50.842;4.386;2022-10-16T04:41:42;3.35;;;1.70;;
22525;SDS011;11429;50.842;4.386;2022-10-16T04:44:08;4.70;;;1.45;;
22525;SDS011;11429;50.842;4.386;2022-10-16T04:46:33;5.72;;;1.60;;
22525;SDS011;11429;50.842;4.386;2022-10-16T04:48:59;4.03;;;1.70;;
22525;SDS011;11429;50.842;4.386;2022-10-16T04:51:25;6.85;;;1.63;;
22525;SDS011;11429;50.842;4.386;2022-10-16T04:53:52;5.95;;;1.42;;
22525;SDS011;11429;50.842;4.386;2022-10-16T04:56:19;4.72;;;1.70;;
22525;SDS011;11429;50.842;4.386;2022-10-16T04:58:46;5.40;;;1.50;;
22525;SDS011;11429;50.842;4.386;2022-10-16T05:01:12;5.35;;;1.65;;
22525;SDS011;11429;50.842;4.386;2022-10-16T05:03:38;3.30;;;1.50;;
22525;SDS011;11429;50.842;4.386;2022-10-16T05:06:07;7.22;;;1.55;;
22525;SDS011;11429;50.842;4.386;2022-10-16T05:08:33;6.60;;;1.60;;
22525;SDS011;11429;50.842;4.386;2022-10-16T05:10:58;4.32;;;1.30;;
22525;SDS011;11429;50.842;4.386;2022-10-16T05:13:24;5.20;;;1.80;;
22525;SDS011;11429;50.842;4.386;2022-10-16T05:15:50;7.43;;;1.65;;
22525;SDS011;11429;50.842;4.386;2022-10-16T05:18:16;7.00;;;1.83;;
22525;SDS011;11429;50.842;4.386;2022-10-16T05:20:42;3.75;;;1.92;;
22525;SDS011;11429;50.842;4.386;2022-10-16T05:23:07;2.65;;;1.73;;
22525;SDS011;11429;50.842;4.386;2022-10-16T05:25:35;6.32;;;2.00;;
22525;SDS011;11429;50.842;4.386;2022-10-16T05:28:01;5.70;;;1.75;;
22525;SDS011;11429;50.842;4.386;2022-10-16T05:30:27;5.30;;;2.17;;
22525;SDS011;11429;50.842;4.386;2022-10-16T05:32:52;7.35;;;2.20;;
22525;SDS011;11429;50.842;4.386;2022-10-16T05:35:18;4.35;;;1.92;;
22525;SDS011;11429;50.842;4.386;2022-10-16T05:37:44;4.30;;;1.85;;
22525;SDS011;11429;50.842;4.386;2022-10-16T05:40:10;3.70;;;1.92;;
22525;SDS011;11429;50.842;4.386;2022-10-16T05:42:37;6.28;;;2.15;;
22525;SDS011;11429;50.842;4.386;2022-10-16T05:45:03;4.47;;;1.92;;
22525;SDS011;11429;50.842;4.386;2022-10-16T05:47:30;5.22;;;2.63;;
22525;SDS011;11429;50.842;4.386;2022-10-16T05:49:55;4.20;;;1.98;;
22525;SDS011;11429;50.842;4.386;2022-10-16T05:52:21;3.58;;;2.00;;
22525;SDS011;11429;50.842;4.386;2022-10-16T05:54:47;3.40;;;1.90;;
22525;SDS011;11429;50.842;4.386;2022-10-16T05:57:12;5.82;;;2.30;;
22525;SDS011;11429;50.842;4.386;2022-10-16T05:59:38;3.72;;;1.70;;
22525;SDS011;11429;50.842;4.386;2022-10-16T06:02:03;3.88;;;1.77;;
22525;SDS011;11429;50.842;4.386;2022-10-16T06:04:29;6.47;;;1.90;;
22525;SDS011;11429;50.842;4.386;2022-10-16T06:06:57;3.90;;;1.70;;
22525;SDS011;11429;50.842;4.386;2022-10-16T06:09:25;6.18;;;2.35;;
22525;SDS011;11429;50.842;4.386;2022-10-16T06:11:51;4.00;;;1.90;;
22525;SDS011;11429;50.842;4.386;2022-10-16T06:14:16;3.78;;;2.05;;
22525;SDS011;11429;50.842;4.386;2022-10-16T06:16:42;5.75;;;2.13;;
22525;SDS011;11429;50.842;4.386;2022-10-16T06:19:08;3.83;;;1.80;;
22525;SDS011;11429;50.842;4.386;2022-10-16T06:21:34;3.33;;;1.80;;
22525;SDS011;11429;50.842;4.386;2022-10-16T06:24:00;6.43;;;1.90;;
22525;SDS011;11429;50.842;4.386;2022-10-16T06:26:27;5.68;;;1.60;;
22525;SDS011;11429;50.842;4.386;2022-10-16T06:28:54;3.80;;;1.70;;
22525;SDS011;11429;50.842;4.386;2022-10-16T06:31:21;3.95;;;1.90;;
22525;SDS011;11429;50.842;4.386;2022-10-16T06:33:51;4.30;;;2.00;;
22525;SDS011;11429;50.842;4.386;2022-10-16T06:36:17;8.15;;;2.15;;
22525;SDS011;11429;50.842;4.386;2022-10-16T06:38:43;6.13;;;1.88;;
22525;SDS011;11429;50.842;4.386;2022-10-16T06:41:11;6.55;;;1.77;;
22525;SDS011;11429;50.842;4.386;2022-10-16T06:43:38;5.38;;;2.03;;
22525;SDS011;11429;50.842;4.386;2022-10-16T06:46:05;3.95;;;1.70;;
22525;SDS011;11429;50.842;4.386;2022-10-16T06:48:35;4.55;;;1.75;;
22525;SDS011;11429;50.842;4.386;2022-10-16T06:51:11;3.67;;;1.98;;
22525;SDS011;11429;50.842;4.386;2022-10-16T06:53:43;4.75;;;1.60;;
22525;SDS011;11429;50.842;4.386;2022-10-16T06:56:17;12.57;;;2.50;;
22525;SDS011;11429;50.842;4.386;2022-10-16T06:58:47;8.57;;;2.00;;
22525;SDS011;11429;50.842;4.386;2022-10-16T07:01:14;6.40;;;1.70;;
22525;SDS011;11429;50.842;4.386;2022-10-16T07:03:42;3.30;;;2.13;;
22525;SDS011;11429;50.842;4.386;2022-10-16T07:06:10;2.88;;;2.03;;
22525;SDS011;11429;50.842;4.386;2022-10-16T07:08:39;6.68;;;1.90;;
22525;SDS011;11429;50.842;4.386;2022-10-16T07:11:07;6.78;;;1.80;;
22525;SDS011;11429;50.842;4.386;2022-10-16T07:13:38;4.00;;;1.80;;
22525;SDS011;11429;50.842;4.386;2022-10-16T07:16:05;3.67;;;1.60;;
22525;SDS011;11429;50.842;4.386;2022-10-16T07:18:34;5.88;;;1.90;;
22525;SDS011;11429;50.842;4.386;2022-10-16T07:23:34;4.38;;;1.92;;
22525;SDS011;11429;50.842;4.386;2022-10-16T07:26:00;4.43;;;1.77;;
22525;SDS011;11429;50.842;4.386;2022-10-16T07:28:26;7.00;;;1.58;;
22525;SDS011;11429;50.842;4.386;2022-10-16T07:30:51;5.97;;;1.90;;
22525;SDS011;11429;50.842;4.386;2022-10-16T07:33:17;3.45;;;1.70;;
22525;SDS011;11429;50.842;4.386;2022-10-16T07:35:53;3.47;;;1.92;;
22525;SDS011;11429;50.842;4.386;2022-10-16T07:38:19;6.47;;;2.13;;
22525;SDS011;11429;50.842;4.386;2022-10-16T07:40:46;4.82;;;2.20;;
22525;SDS011;11429;50.842;4.386;2022-10-16T07:43:12;4.07;;;1.88;;
22525;SDS011;11429;50.842;4.386;2022-10-16T07:45:45;4.80;;;2.10;;
22525;SDS011;11429;50.842;4.386;2022-10-16T07:48:13;5.50;;;1.92;;
22525;SDS011;11429;50.842;4.386;2022-10-16T07:50:39;3.97;;;1.88;;
22525;SDS011;11429;50.842;4.386;2022-10-16T07:53:05;5.22;;;2.03;;
22525;SDS011;11429;50.842;4.386;2022-10-16T07:55:30;5.85;;;2.67;;
22525;SDS011;11429;50.842;4.386;2022-10-16T07:57:56;6.13;;;2.15;;
22525;SDS011;11429;50.842;4.386;2022-10-16T08:00:21;5.65;;;2.22;;
22525;SDS011;11429;50.842;4.386;2022-10-16T08:02:47;5.63;;;2.20;;
22525;SDS011;11429;50.842;4.386;2022-10-16T08:05:13;4.55;;;2.30;;
22525;SDS011;11429;50.842;4.386;2022-10-16T08:07:38;6.35;;;2.00;;
22525;SDS011;11429;50.842;4.386;2022-10-16T08:10:04;6.80;;;2.13;;
22525;SDS011;11429;50.842;4.386;2022-10-16T08:12:30;7.72;;;2.38;;
22525;SDS011;11429;50.842;4.386;2022-10-16T08:14:55;5.40;;;2.20;;
22525;SDS011;11429;50.842;4.386;2022-10-16T08:17:21;6.10;;;2.00;;
22525;SDS011;11429;50.842;4.386;2022-10-16T08:19:47;7.50;;;2.40;;
22525;SDS011;11429;50.842;4.386;2022-10-16T08:22:13;4.53;;;1.67;;
22525;SDS011;11429;50.842;4.386;2022-10-16T08:24:41;9.02;;;1.85;;
22525;SDS011;11429;50.842;4.386;2022-10-16T08:27:07;7.10;;;2.00;;
22525;SDS011;11429;50.842;4.386;2022-10-16T08:29:34;8.63;;;2.00;;
22525;SDS011;11429;50.842;4.386;2022-10-16T08:31:59;4.55;;;1.40;;
22525;SDS011;11429;50.842;4.386;2022-10-16T08:34:25;4.25;;;1.75;;
22525;SDS011;11429;50.842;4.386;2022-10-16T08:36:52;7.00;;;1.90;;
22525;SDS011;11429;50.842;4.386;2022-10-16T08:39:19;4.88;;;1.50;;
22525;SDS011;11429;50.842;4.386;2022-10-16T08:47:15;6.80;;;1.80;;
22525;SDS011;11429;50.842;4.386;2022-10-16T08:49:55;7.97;;;1.83;;
22525;SDS011;11429;50.842;4.386;2022-10-16T08:52:21;4.65;;;1.30;;
22525;SDS011;11429;50.842;4.386;2022-10-16T08:54:49;6.47;;;1.75;;
22525;SDS011;11429;50.842;4.386;2022-10-16T08:57:21;5.75;;;2.08;;
22525;SDS011;11429;50.842;4.386;2022-10-16T08:59:50;5.97;;;1.73;;
22525;SDS011;11429;50.842;4.386;2022-10-16T09:02:33;5.47;;;1.70;;
22525;SDS011;11429;50.842;4.386;2022-10-16T09:08:28;5.72;;;1.52;;
22525;SDS011;11429;50.842;4.386;2022-10-16T09:13:59;8.00;;;1.95;;
22525;SDS011;11429;50.842;4.386;2022-10-16T09:16:42;5.03;;;1.48;;
22525;SDS011;11429;50.842;4.386;2022-10-16T09:19:24;4.78;;;1.50;;
22525;SDS011;11429;50.842;4.386;2022-10-16T09:22:09;4.22;;;1.20;;
22525;SDS011;11429;50.842;4.386;2022-10-16T09:24:39;6.88;;;1.27;;
22525;SDS011;11429;50.842;4.386;2022-10-16T09:27:04;6.13;;;1.52;;
22525;SDS011;11429;50.842;4.386;2022-10-16T09:29:32;5.53;;;1.50;;
22525;SDS011;11429;50.842;4.386;2022-10-16T09:31:58;7.75;;;1.35;;
22525;SDS011;11429;50.842;4.386;2022-10-16T09:34:37;7.28;;;1.48;;
22525;SDS011;11429;50.842;4.386;2022-10-16T09:37:09;5.85;;;1.35;;
22525;SDS011;11429;50.842;4.386;2022-10-16T09:42:22;8.25;;;1.48;;
22525;SDS011;11429;50.842;4.386;2022-10-16T09:44:56;7.50;;;1.38;;
22525;SDS011;11429;50.842;4.386;2022-10-16T09:47:23;4.78;;;1.13;;
22525;SDS011;11429;50.842;4.386;2022-10-16T09:50:00;3.67;;;1.05;;
22525;SDS011;11429;50.842;4.386;2022-10-16T09:52:44;4.00;;;1.35;;
22525;SDS011;11429;50.842;4.386;2022-10-16T09:55:14;7.28;;;1.30;;
22525;SDS011;11429;50.842;4.386;2022-10-16T09:57:51;5.95;;;1.30;;
22525;SDS011;11429;50.842;4.386;2022-10-16T10:00:18;4.45;;;1.30;;
22525;SDS011;11429;50.842;4.386;2022-10-16T10:02:45;5.22;;;1.20;;
22525;SDS011;11429;50.842;4.386;2022-10-16T10:08:12;3.63;;;1.00;;
22525;SDS011;11429;50.842;4.386;2022-10-16T10:10:42;5.65;;;1.13;;
22525;SDS011;11429;50.842;4.386;2022-10-16T10:13:17;5.10;;;1.40;;
22525;SDS011;11429;50.842;4.386;2022-10-16T10:15:47;4.15;;;1.30;;
22525;SDS011;11429;50.842;4.386;2022-10-16T10:18:17;3.80;;;1.30;;
22525;SDS011;11429;50.842;4.386;2022-10-16T10:20:45;5.53;;;1.20;;
22525;SDS011;11429;50.842;4.386;2022-10-16T10:23:21;4.72;;;1.23;;
22525;SDS011;11429;50.842;4.386;2022-10-16T10:36:56;4.53;;;1.23;;
22525;SDS011;11429;50.842;4.386;2022-10-16T10:39:35;4.30;;;1.00;;
22525;SDS011;11429;50.842;4.386;2022-10-16T10:42:17;4.38;;;1.20;;
22525;SDS011;11429;50.842;4.386;2022-10-16T10:45:17;3.22;;;1.08;;
22525;SDS011;11429;50.842;4.386;2022-10-16T10:51:01;4.53;;;1.10;;
22525;SDS011;11429;50.842;4.386;2022-10-16T10:53:41;3.95;;;1.42;;
22525;SDS011;11429;50.842;4.386;2022-10-16T10:56:19;3.50;;;1.23;;
22525;SDS011;11429;50.842;4.386;2022-10-16T11:07:09;4.18;;;1.20;;
22525;SDS011;11429;50.842;4.386;2022-10-16T11:09:48;3.33;;;0.82;;
22525;SDS011;11429;50.842;4.386;2022-10-16T11:12:19;5.72;;;1.60;;
22525;SDS011;11429;50.842;4.386;2022-10-16T11:17:25;6.80;;;1.50;;
22525;SDS011;11429;50.842;4.386;2022-10-16T11:22:52;3.65;;;1.00;;
22525;SDS011;11429;50.842;4.386;2022-10-16T11:25:22;6.82;;;2.03;;
22525;SDS011;11429;50.842;4.386;2022-10-16T11:28:00;4.68;;;1.17;;
22525;SDS011;11429;50.842;4.386;2022-10-16T11:30:59;6.40;;;1.23;;
22525;SDS011;11429;50.842;4.386;2022-10-16T11:33:57;5.13;;;1.08;;
22525;SDS011;11429;50.842;4.386;2022-10-16T11:39:20;2.42;;;0.95;;
22525;SDS011;11429;50.842;4.386;2022-10-16T11:41:50;4.32;;;1.02;;
22525;SDS011;11429;50.842;4.386;2022-10-16T11:44:34;3.05;;;1.20;;
22525;SDS011;11429;50.842;4.386;2022-10-16T11:50:28;5.63;;;1.00;;
22525;SDS011;11429;50.842;4.386;2022-10-16T11:55:48;3.90;;;1.00;;
22525;SDS011;11429;50.842;4.386;2022-10-16T12:08:40;2.08;;;1.08;;
22525;SDS011;11429;50.842;4.386;2022-10-16T12:11:53;4.88;;;0.70;;
22525;SDS011;11429;50.842;4.386;2022-10-16T12:16:53;2.33;;;0.93;;
22525;SDS011;11429;50.842;4.386;2022-10-16T12:19:21;3.13;;;1.00;;
22525;SDS011;11429;50.842;4.386;2022-10-16T12:21:48;3.78;;;0.82;;
22525;SDS011;11429;50.842;4.386;2022-10-16T12:26:56;3.55;;;1.10;;
22525;SDS011;11429;50.842;4.386;2022-10-16T12:29:33;5.28;;;1.00;;
22525;SDS011;11429;50.842;4.386;2022-10-16T12:34:53;2.05;;;0.90;;
22525;SDS011;11429;50.842;4.386;2022-10-16T12:37:35;3.78;;;0.95;;
22525;SDS011;11429;50.842;4.386;2022-10-16T12:40:16;3.15;;;1.33;;
22525;SDS011;11429;50.842;4.386;2022-10-16T12:42:48;2.83;;;0.85;;
22525;SDS011;11429;50.842;4.386;2022-10-16T12:45:33;3.50;;;1.00;;
22525;SDS011;11429;50.842;4.386;2022-10-16T12:48:02;2.63;;;0.77;;
22525;SDS011;11429;50.842;4.386;2022-10-16T12:50:43;3.22;;;1.13;;
22525;SDS011;11429;50.842;4.386;2022-10-16T12:53:17;4.68;;;1.00;;
22525;SDS011;11429;50.842;4.386;2022-10-16T13:01:17;4.50;;;1.40;;
22525;SDS011;11429;50.842;4.386;2022-10-16T13:06:45;4.35;;;1.08;;
22525;SDS011;11429;50.842;4.386;2022-10-16T13:15:01;4.53;;;0.82;;
22525;SDS011;11429;50.842;4.386;2022-10-16T13:20:34;4.32;;;1.00;;
22525;SDS011;11429;50.842;4.386;2022-10-16T13:28:39;2.78;;;0.75;;
22525;SDS011;11429;50.842;4.386;2022-10-16T13:31:05;4.32;;;0.90;;
22525;SDS011;11429;50.842;4.386;2022-10-16T13:33:43;5.00;;;1.10;;
22525;SDS011;11429;50.842;4.386;2022-10-16T13:36:23;2.97;;;1.05;;
22525;SDS011;11429;50.842;4.386;2022-10-16T13:39:27;3.20;;;1.20;;
22525;SDS011;11429;50.842;4.386;2022-10-16T13:44:49;3.25;;;1.20;;
22525;SDS011;11429;50.842;4.386;2022-10-16T13:47:26;6.75;;;1.38;;
22525;SDS011;11429;50.842;4.386;2022-10-16T13:50:00;3.35;;;1.05;;
22525;SDS011;11429;50.842;4.386;2022-10-16T13:52:40;4.32;;;1.30;;
22525;SDS011;11429;50.842;4.386;2022-10-16T13:55:13;3.40;;;1.30;;
22525;SDS011;11429;50.842;4.386;2022-10-16T13:57:41;4.72;;;1.02;;
22525;SDS011;11429;50.842;4.386;2022-10-16T14:00:17;4.13;;;1.20;;
22525;SDS011;11429;50.842;4.386;2022-10-16T14:02:43;4.88;;;0.90;;
22525;SDS011;11429;50.842;4.386;2022-10-16T14:05:10;3.50;;;0.80;;
22525;SDS011;11429;50.842;4.386;2022-10-16T14:07:36;3.92;;;0.95;;
22525;SDS011;11429;50.842;4.386;2022-10-16T14:10:06;4.18;;;0.85;;
22525;SDS011;11429;50.842;4.386;2022-10-16T14:12:45;2.35;;;0.90;;
22525;SDS011;11429;50.842;4.386;2022-10-16T14:15:18;4.75;;;1.00;;
22525;SDS011;11429;50.842;4.386;2022-10-16T14:17:45;3.15;;;1.05;;
22525;SDS011;11429;50.842;4.386;2022-10-16T14:20:15;4.00;;;0.90;;
22525;SDS011;11429;50.842;4.386;2022-10-16T14:22:41;4.68;;;0.98;;
22525;SDS011;11429;50.842;4.386;2022-10-16T14:30:55;6.63;;;1.00;;
22525;SDS011;11429;50.842;4.386;2022-10-16T14:33:24;4.32;;;0.90;;
22525;SDS011;11429;50.842;4.386;2022-10-16T14:38:37;4.32;;;1.00;;
22525;SDS011;11429;50.842;4.386;2022-10-16T14:41:04;2.42;;;1.10;;
22525;SDS011;11429;50.842;4.386;2022-10-16T14:43:34;9.15;;;1.42;;
22525;SDS011;11429;50.842;4.386;2022-10-16T14:46:01;2.80;;;0.90;;
22525;SDS011;11429;50.842;4.386;2022-10-16T14:48:29;7.50;;;1.10;;
22525;SDS011;11429;50.842;4.386;2022-10-16T14:50:55;7.38;;;1.30;;
22525;SDS011;11429;50.842;4.386;2022-10-16T14:53:21;3.80;;;0.85;;
22525;SDS011;11429;50.842;4.386;2022-10-16T14:55:46;4.05;;;1.00;;
22525;SDS011;11429;50.842;4.386;2022-10-16T14:58:14;4.22;;;1.33;;
22525;SDS011;11429;50.842;4.386;2022-10-16T15:00:51;4.68;;;1.30;;
22525;SDS011;11429;50.842;4.386;2022-10-16T15:03:17;5.38;;;1.58;;
22525;SDS011;11429;50.842;4.386;2022-10-16T15:05:42;6.80;;;1.33;;
22525;SDS011;11429;50.842;4.386;2022-10-16T15:08:08;4.82;;;1.10;;
22525;SDS011;11429;50.842;4.386;2022-10-16T15:10:40;5.55;;;1.20;;
22525;SDS011;11429;50.842;4.386;2022-10-16T15:13:09;5.43;;;1.33;;
22525;SDS011;11429;50.842;4.386;2022-10-16T15:15:47;3.20;;;1.13;;
22525;SDS011;11429;50.842;4.386;2022-10-16T15:18:14;6.97;;;1.65;;
22525;SDS011;11429;50.842;4.386;2022-10-16T15:20:44;3.20;;;1.17;;
22525;SDS011;11429;50.842;4.386;2022-10-16T15:23:13;5.28;;;1.40;;
22525;SDS011;11429;50.842;4.386;2022-10-16T15:25:47;4.72;;;1.60;;
22525;SDS011;11429;50.842;4.386;2022-10-16T15:28:15;6.95;;;2.05;;
22525;SDS011;11429;50.842;4.386;2022-10-16T15:30:42;6.57;;;1.73;;
22525;SDS011;11429;50.842;4.386;2022-10-16T15:33:19;7.55;;;1.50;;
22525;SDS011;11429;50.842;4.386;2022-10-16T15:35:48;4.88;;;1.30;;
22525;SDS011;11429;50.842;4.386;2022-10-16T15:38:15;8.63;;;2.00;;
22525;SDS011;11429;50.842;4.386;2022-10-16T15:40:42;5.90;;;2.00;;
22525;SDS011;11429;50.842;4.386;2022-10-16T15:43:08;5.15;;;1.65;;
22525;SDS011;11429;50.842;4.386;2022-10-16T15:45:34;6.15;;;1.60;;
22525;SDS011;11429;50.842;4.386;2022-10-16T15:47:59;4.53;;;1.35;;
22525;SDS011;11429;50.842;4.386;2022-10-16T15:50:25;4.55;;;1.30;;
22525;SDS011;11429;50.842;4.386;2022-10-16T15:52:51;5.03;;;1.33;;
22525;SDS011;11429;50.842;4.386;2022-10-16T15:55:17;5.55;;;1.25;;
22525;SDS011;11429;50.842;4.386;2022-10-16T15:57:43;6.22;;;1.17;;
22525;SDS011;11429;50.842;4.386;2022-10-16T16:00:14;5.70;;;1.60;;
22525;SDS011;11429;50.842;4.386;2022-10-16T16:02:43;3.75;;;1.25;;
22525;SDS011;11429;50.842;4.386;2022-10-16T16:05:14;4.45;;;1.67;;
22525;SDS011;11429;50.842;4.386;2022-10-16T16:07:40;5.72;;;1.10;;
22525;SDS011;11429;50.842;4.386;2022-10-16T16:10:06;6.15;;;1.42;;
22525;SDS011;11429;50.842;4.386;2022-10-16T16:12:33;2.55;;;1.00;;
22525;SDS011;11429;50.842;4.386;2022-10-16T16:14:59;4.68;;;1.60;;
22525;SDS011;11429;50.842;4.386;2022-10-16T16:17:25;4.50;;;1.45;;
22525;SDS011;11429;50.842;4.386;2022-10-16T16:19:50;6.68;;;1.60;;
22525;SDS011;11429;50.842;4.386;2022-10-16T16:22:16;6.43;;;1.73;;
22525;SDS011;11429;50.842;4.386;2022-10-16T16:24:42;7.30;;;1.35;;
22525;SDS011;11429;50.842;4.386;2022-10-16T16:27:08;6.05;;;1.25;;
22525;SDS011;11429;50.842;4.386;2022-10-16T16:29:34;5.00;;;1.20;;
22525;SDS011;11429;50.842;4.386;2022-10-16T16:32:00;5.43;;;1.40;;
22525;SDS011;11429;50.842;4.386;2022-10-16T16:34:26;7.97;;;1.10;;
22525;SDS011;11429;50.842;4.386;2022-10-16T16:36:53;5.50;;;1.52;;
22525;SDS011;11429;50.842;4.386;2022-10-16T16:39:20;5.63;;;1.77;;
22525;SDS011;11429;50.842;4.386;2022-10-16T16:41:46;4.60;;;1.30;;
22525;SDS011;11429;50.842;4.386;2022-10-16T16:44:12;4.28;;;1.80;;
22525;SDS011;11429;50.842;4.386;2022-10-16T16:46:39;6.35;;;1.88;;
22525;SDS011;11429;50.842;4.386;2022-10-16T16:49:05;6.97;;;1.70;;
22525;SDS011;11429;50.842;4.386;2022-10-16T16:51:32;9.23;;;1.80;;
22525;SDS011;11429;50.842;4.386;2022-10-16T16:53:58;4.82;;;1.88;;
22525;SDS011;11429;50.842;4.386;2022-10-16T16:56:24;4.05;;;1.30;;
22525;SDS011;11429;50.842;4.386;2022-10-16T16:58:51;3.95;;;1.40;;
22525;SDS011;11429;50.842;4.386;2022-10-16T17:01:19;6.88;;;1.50;;
22525;SDS011;11429;50.842;4.386;2022-10-16T17:03:46;4.63;;;1.80;;